createdAt,value
2023-12-28T00:00:07.420Z,20.55
2023-12-28T00:00:39.023Z,20.55
2023-12-28T00:01:10.580Z,20.55
2023-12-28T00:01:42.133Z,20.57
2023-12-28T00:02:13.621Z,20.55
2023-12-28T00:02:45.004Z,20.54
2023-12-28T00:03:16.560Z,20.57
2023-12-28T00:03:48.173Z,20.58
2023-12-28T00:04:19.768Z,20.56
2023-12-28T00:04:51.248Z,20.56
2023-12-28T00:05:22.703Z,20.55
2023-12-28T00:05:54.237Z,20.56
2023-12-28T00:06:25.659Z,20.58
2023-12-28T00:06:57.281Z,20.56
2023-12-28T00:07:28.809Z,20.55
2023-12-28T00:08:00.629Z,20.58
2023-12-28T00:08:32.301Z,20.55
2023-12-28T00:09:11.119Z,20.55
2023-12-28T00:09:43.655Z,20.57
2023-12-28T00:10:15.145Z,20.54
2023-12-28T00:10:46.594Z,20.53
2023-12-28T00:11:18.090Z,20.54
2023-12-28T00:11:49.630Z,20.55
2023-12-28T00:12:21.288Z,20.55
2023-12-28T00:12:52.922Z,20.55
2023-12-28T00:13:24.563Z,20.55
2023-12-28T00:13:56.066Z,20.55
2023-12-28T00:14:27.568Z,20.55
2023-12-28T00:14:59.092Z,20.54
2023-12-28T00:15:30.694Z,20.53
2023-12-28T00:16:02.393Z,20.55
2023-12-28T00:16:34.249Z,20.54
2023-12-28T00:17:05.941Z,20.56
2023-12-28T00:17:37.562Z,20.58
2023-12-28T00:18:09.270Z,20.57
2023-12-28T00:18:41.032Z,20.58
2023-12-28T00:19:12.975Z,20.58
2023-12-28T00:19:44.558Z,20.58
2023-12-28T00:20:16.151Z,20.55
2023-12-28T00:20:47.707Z,20.56
2023-12-28T00:21:19.290Z,20.57
2023-12-28T00:21:50.867Z,20.58
2023-12-28T00:22:22.473Z,20.59
2023-12-28T00:22:54.248Z,20.56
2023-12-28T00:23:25.800Z,20.58
2023-12-28T00:23:57.304Z,20.55
2023-12-28T00:24:29.013Z,20.59
2023-12-28T00:25:00.593Z,20.56
2023-12-28T00:25:32.220Z,20.58
2023-12-28T00:26:03.808Z,20.55
2023-12-28T00:26:35.223Z,20.55
2023-12-28T00:27:06.670Z,20.57
2023-12-28T00:27:38.179Z,20.56
2023-12-28T00:28:09.741Z,20.57
2023-12-28T00:28:41.192Z,20.56
2023-12-28T00:29:13.076Z,20.53
2023-12-28T00:29:44.568Z,20.54
2023-12-28T00:30:16.295Z,20.53
2023-12-28T00:30:48.100Z,20.58
2023-12-28T00:31:19.706Z,20.56
2023-12-28T00:31:51.264Z,20.58
2023-12-28T00:32:22.743Z,20.56
2023-12-28T00:32:54.216Z,20.55
2023-12-28T00:33:25.827Z,20.56
2023-12-28T00:33:57.411Z,20.55
2023-12-28T00:34:29.260Z,20.55
2023-12-28T00:35:00.931Z,20.58
2023-12-28T00:35:32.390Z,20.58
2023-12-28T00:36:03.864Z,20.56
2023-12-28T00:36:35.389Z,20.54
2023-12-28T00:37:06.845Z,20.54
2023-12-28T00:37:38.320Z,20.54
2023-12-28T00:38:09.788Z,20.55
2023-12-28T00:38:41.228Z,20.55
2023-12-28T00:39:15.442Z,20.57
2023-12-28T00:39:47.092Z,20.56
2023-12-28T00:40:18.621Z,20.56
2023-12-28T00:40:50.098Z,20.56
2023-12-28T00:41:21.534Z,20.54
2023-12-28T00:41:52.949Z,20.52
2023-12-28T00:42:24.488Z,20.56
2023-12-28T00:42:56.260Z,20.56
2023-12-28T00:43:27.845Z,20.55
2023-12-28T00:43:59.370Z,20.55
2023-12-28T00:44:30.903Z,20.56
2023-12-28T00:45:02.357Z,20.57
2023-12-28T00:45:33.869Z,20.58
2023-12-28T00:46:05.339Z,20.58
2023-12-28T00:46:36.801Z,20.58
2023-12-28T00:47:08.375Z,20.58
2023-12-28T00:47:40.040Z,20.59
2023-12-28T00:48:11.752Z,20.56
2023-12-28T00:48:43.561Z,20.56
2023-12-28T00:49:15.214Z,20.56
2023-12-28T00:49:46.878Z,20.55
2023-12-28T00:50:18.425Z,20.54
2023-12-28T00:50:49.902Z,20.54
2023-12-28T00:51:21.521Z,20.54
2023-12-28T00:51:53.116Z,20.56
2023-12-28T00:52:24.541Z,20.55
2023-12-28T00:52:56.148Z,20.54
2023-12-28T00:53:27.692Z,20.51
2023-12-28T00:53:59.224Z,20.52
2023-12-28T00:54:30.677Z,20.51
2023-12-28T00:55:02.224Z,20.54
2023-12-28T00:55:33.682Z,20.53
2023-12-28T00:56:05.126Z,20.52
2023-12-28T00:56:36.610Z,20.54
2023-12-28T00:57:08.034Z,20.53
2023-12-28T00:57:39.624Z,20.52
2023-12-28T00:58:11.141Z,20.52
2023-12-28T00:58:42.627Z,20.55
2023-12-28T00:59:14.072Z,20.55
2023-12-28T00:59:45.490Z,20.54
2023-12-28T01:00:16.976Z,20.56
2023-12-28T01:00:48.527Z,20.53
2023-12-28T01:01:20.202Z,20.52
2023-12-28T01:01:51.780Z,20.54
2023-12-28T01:02:23.305Z,20.53
2023-12-28T01:02:54.829Z,20.54
2023-12-28T01:03:26.425Z,20.54
2023-12-28T01:03:58.259Z,20.53
2023-12-28T01:04:29.944Z,20.54
2023-12-28T01:05:01.489Z,20.53
2023-12-28T01:05:33.016Z,20.54
2023-12-28T01:06:04.510Z,20.54
2023-12-28T01:06:36.101Z,20.53
2023-12-28T01:07:07.748Z,20.55
2023-12-28T01:07:39.271Z,20.56
2023-12-28T01:08:10.817Z,20.55
2023-12-28T01:08:42.250Z,20.56
2023-12-28T01:09:13.833Z,20.56
2023-12-28T01:09:45.323Z,20.54
2023-12-28T01:10:16.847Z,20.55
2023-12-28T01:10:48.343Z,20.53
2023-12-28T01:11:19.833Z,20.56
2023-12-28T01:11:51.378Z,20.56
2023-12-28T01:12:22.971Z,20.56
2023-12-28T01:12:54.515Z,20.55
2023-12-28T01:13:26.006Z,20.55
2023-12-28T01:13:57.482Z,20.56
2023-12-28T01:14:29.030Z,20.54
2023-12-28T01:15:00.577Z,20.53
2023-12-28T01:15:32.108Z,20.53
2023-12-28T01:16:03.586Z,20.54
2023-12-28T01:16:35.029Z,20.55
2023-12-28T01:17:06.514Z,20.53
2023-12-28T01:17:38.075Z,20.53
2023-12-28T01:18:09.885Z,20.51
2023-12-28T01:18:41.580Z,20.54
2023-12-28T01:19:13.364Z,20.51
2023-12-28T01:19:45.063Z,20.52
2023-12-28T01:20:16.585Z,20.53
2023-12-28T01:20:48.134Z,20.54
2023-12-28T01:21:19.677Z,20.55
2023-12-28T01:21:51.144Z,20.54
2023-12-28T01:22:22.634Z,20.55
2023-12-28T01:22:54.172Z,20.54
2023-12-28T01:23:25.664Z,20.55
2023-12-28T01:23:57.115Z,20.54
2023-12-28T01:24:28.633Z,20.56
2023-12-28T01:25:00.171Z,20.58
2023-12-28T01:25:31.643Z,20.58
2023-12-28T01:26:03.150Z,20.56
2023-12-28T01:26:34.677Z,20.62
2023-12-28T01:27:06.148Z,20.58
2023-12-28T01:27:37.677Z,20.59
2023-12-28T01:28:09.323Z,20.59
2023-12-28T01:28:40.803Z,20.59
2023-12-28T01:29:12.318Z,20.59
2023-12-28T01:29:43.779Z,20.58
2023-12-28T01:30:15.425Z,20.58
2023-12-28T01:30:47.125Z,20.56
2023-12-28T01:31:18.857Z,20.60
2023-12-28T01:31:50.353Z,20.58
2023-12-28T01:32:21.817Z,20.59
2023-12-28T01:32:53.354Z,20.58
2023-12-28T01:33:24.911Z,20.55
2023-12-28T01:33:56.505Z,20.56
2023-12-28T01:34:28.114Z,20.58
2023-12-28T01:34:59.844Z,20.58
2023-12-28T01:35:34.298Z,20.56
2023-12-28T01:36:05.778Z,20.55
2023-12-28T01:36:37.265Z,20.56
2023-12-28T01:37:09.062Z,20.55
2023-12-28T01:37:40.700Z,20.57
2023-12-28T01:38:12.196Z,20.56
2023-12-28T01:38:43.632Z,20.55
2023-12-28T01:39:15.217Z,20.55
2023-12-28T01:39:46.758Z,20.56
2023-12-28T01:40:18.564Z,20.54
2023-12-28T01:40:54.966Z,20.55
2023-12-28T01:41:27.797Z,20.59
2023-12-28T01:42:02.610Z,20.58
2023-12-28T01:42:34.346Z,20.56
2023-12-28T01:43:05.868Z,20.55
2023-12-28T01:43:37.371Z,20.56
2023-12-28T01:44:08.902Z,20.56
2023-12-28T01:44:40.463Z,20.58
2023-12-28T01:45:11.977Z,20.58
2023-12-28T01:45:43.521Z,20.56
2023-12-28T01:46:15.079Z,20.55
2023-12-28T01:46:46.694Z,20.59
2023-12-28T01:47:18.153Z,20.55
2023-12-28T01:47:49.770Z,20.56
2023-12-28T01:48:21.377Z,20.54
2023-12-28T01:48:54.672Z,20.53
2023-12-28T01:49:26.312Z,20.56
2023-12-28T01:49:57.935Z,20.58
2023-12-28T01:50:29.474Z,20.58
2023-12-28T01:51:00.910Z,20.56
2023-12-28T01:51:32.485Z,20.55
2023-12-28T01:52:04.081Z,20.56
2023-12-28T01:52:35.692Z,20.54
2023-12-28T01:53:07.210Z,20.53
2023-12-28T01:53:38.735Z,20.53
2023-12-28T01:54:10.168Z,20.55
2023-12-28T01:54:41.659Z,20.53
2023-12-28T01:55:13.195Z,20.54
2023-12-28T01:55:44.632Z,20.52
2023-12-28T01:56:16.087Z,20.54
2023-12-28T01:56:47.557Z,20.55
2023-12-28T01:57:19.096Z,20.54
2023-12-28T01:57:50.589Z,20.54
2023-12-28T01:58:22.113Z,20.56
2023-12-28T01:58:53.562Z,20.54
2023-12-28T01:59:25.111Z,20.54
2023-12-28T01:59:56.707Z,20.53
2023-12-28T02:00:28.241Z,20.55
2023-12-28T02:00:59.836Z,20.56
2023-12-28T02:01:31.490Z,20.54
2023-12-28T02:02:02.987Z,20.54
2023-12-28T02:02:34.506Z,20.55
2023-12-28T02:03:06.008Z,20.57
2023-12-28T02:03:37.523Z,20.55
2023-12-28T02:04:09.083Z,20.55
2023-12-28T02:04:40.706Z,20.55
2023-12-28T02:05:12.168Z,20.57
2023-12-28T02:05:43.741Z,20.57
2023-12-28T02:06:15.379Z,20.55
2023-12-28T02:06:46.989Z,20.54
2023-12-28T02:07:18.486Z,20.56
2023-12-28T02:07:50.040Z,20.56
2023-12-28T02:08:21.523Z,20.54
2023-12-28T02:08:52.952Z,20.53
2023-12-28T02:09:24.441Z,20.54
2023-12-28T02:09:56.074Z,20.55
2023-12-28T02:10:27.528Z,20.53
2023-12-28T02:10:59.004Z,20.54
2023-12-28T02:11:30.496Z,20.54
2023-12-28T02:12:01.952Z,20.55
2023-12-28T02:12:33.449Z,20.56
2023-12-28T02:13:04.911Z,20.54
2023-12-28T02:13:36.403Z,20.54
2023-12-28T02:14:07.834Z,20.56
2023-12-28T02:14:39.305Z,20.56
2023-12-28T02:15:10.866Z,20.56
2023-12-28T02:15:42.391Z,20.55
2023-12-28T02:16:13.878Z,20.56
2023-12-28T02:16:45.314Z,20.55
2023-12-28T02:17:16.898Z,20.55
2023-12-28T02:17:48.496Z,20.53
2023-12-28T02:18:20.180Z,20.53
2023-12-28T02:18:51.854Z,20.56
2023-12-28T02:19:23.419Z,20.52
2023-12-28T02:19:54.891Z,20.52
2023-12-28T02:20:26.371Z,20.54
2023-12-28T02:20:57.815Z,20.55
2023-12-28T02:21:29.301Z,20.55
2023-12-28T02:22:00.943Z,20.59
2023-12-28T02:22:32.376Z,20.55
2023-12-28T02:23:04.009Z,20.56
2023-12-28T02:23:35.433Z,20.56
2023-12-28T02:24:06.910Z,20.54
2023-12-28T02:24:38.467Z,20.54
2023-12-28T02:25:10.055Z,20.55
2023-12-28T02:25:41.615Z,20.55
2023-12-28T02:26:13.113Z,20.56
2023-12-28T02:26:44.618Z,20.55
2023-12-28T02:27:16.126Z,20.57
2023-12-28T02:27:47.935Z,20.57
2023-12-28T02:28:19.470Z,20.58
2023-12-28T02:28:50.940Z,20.55
2023-12-28T02:29:22.362Z,20.57
2023-12-28T02:29:53.785Z,20.57
2023-12-28T02:30:25.428Z,20.56
2023-12-28T02:30:57.126Z,20.56
2023-12-28T02:31:28.864Z,20.57
2023-12-28T02:32:00.475Z,20.58
2023-12-28T02:32:32.019Z,20.59
2023-12-28T02:33:03.662Z,20.55
2023-12-28T02:33:35.355Z,20.56
2023-12-28T02:34:07.007Z,20.58
2023-12-28T02:34:38.609Z,20.56
2023-12-28T02:35:10.128Z,20.54
2023-12-28T02:35:41.627Z,20.55
2023-12-28T02:36:13.177Z,20.58
2023-12-28T02:36:44.749Z,20.56
2023-12-28T02:37:16.299Z,20.57
2023-12-28T02:37:47.743Z,20.58
2023-12-28T02:38:19.223Z,20.54
2023-12-28T02:38:50.762Z,20.58
2023-12-28T02:39:22.277Z,20.58
2023-12-28T02:39:53.973Z,20.58
2023-12-28T02:40:25.516Z,20.57
2023-12-28T02:40:56.974Z,20.56
2023-12-28T02:41:28.472Z,20.58
2023-12-28T02:42:00.063Z,20.59
2023-12-28T02:42:31.782Z,20.56
2023-12-28T02:43:03.356Z,20.57
2023-12-28T02:43:34.840Z,20.56
2023-12-28T02:44:09.094Z,20.58
2023-12-28T02:44:40.536Z,20.56
2023-12-28T02:45:12.169Z,20.54
2023-12-28T02:45:43.853Z,20.55
2023-12-28T02:46:15.286Z,20.56
2023-12-28T02:46:46.795Z,20.56
2023-12-28T02:47:18.282Z,20.55
2023-12-28T02:47:49.893Z,20.56
2023-12-28T02:48:21.558Z,20.56
2023-12-28T02:48:53.181Z,20.55
2023-12-28T02:49:24.971Z,20.54
2023-12-28T02:49:56.622Z,20.54
2023-12-28T02:50:28.114Z,20.55
2023-12-28T02:50:59.608Z,20.54
2023-12-28T02:51:31.180Z,20.54
2023-12-28T02:52:02.700Z,20.52
2023-12-28T02:52:34.164Z,20.52
2023-12-28T02:53:05.800Z,20.52
2023-12-28T02:53:37.381Z,20.53
2023-12-28T02:54:08.947Z,20.55
2023-12-28T02:54:40.532Z,20.58
2023-12-28T02:55:12.099Z,20.57
2023-12-28T02:55:43.647Z,20.58
2023-12-28T02:56:15.197Z,20.56
2023-12-28T02:56:46.684Z,20.58
2023-12-28T02:57:18.193Z,20.58
2023-12-28T02:57:49.697Z,20.55
2023-12-28T02:58:21.225Z,20.58
2023-12-28T02:58:52.753Z,20.57
2023-12-28T02:59:24.208Z,20.54
2023-12-28T02:59:55.696Z,20.56
2023-12-28T03:00:27.178Z,20.55
2023-12-28T03:00:58.782Z,20.55
2023-12-28T03:01:30.507Z,20.55
2023-12-28T03:02:01.997Z,20.55
2023-12-28T03:02:33.511Z,20.55
2023-12-28T03:03:05.091Z,20.55
2023-12-28T03:03:36.657Z,20.57
2023-12-28T03:04:08.209Z,20.58
2023-12-28T03:04:39.701Z,20.58
2023-12-28T03:05:11.187Z,20.59
2023-12-28T03:05:42.715Z,20.58
2023-12-28T03:06:14.280Z,20.58
2023-12-28T03:06:45.749Z,20.57
2023-12-28T03:07:17.185Z,20.58
2023-12-28T03:07:48.676Z,20.56
2023-12-28T03:08:20.198Z,20.57
2023-12-28T03:08:51.693Z,20.55
2023-12-28T03:09:23.161Z,20.55
2023-12-28T03:09:54.718Z,20.56
2023-12-28T03:10:26.201Z,20.58
2023-12-28T03:10:57.696Z,20.55
2023-12-28T03:11:29.221Z,20.56
2023-12-28T03:12:00.957Z,20.55
2023-12-28T03:12:32.421Z,20.55
2023-12-28T03:13:03.892Z,20.55
2023-12-28T03:13:35.378Z,20.56
2023-12-28T03:14:06.825Z,20.55
2023-12-28T03:14:38.279Z,20.55
2023-12-28T03:15:09.869Z,20.55
2023-12-28T03:15:41.380Z,20.54
2023-12-28T03:16:12.846Z,20.56
2023-12-28T03:16:44.286Z,20.58
2023-12-28T03:17:15.779Z,20.54
2023-12-28T03:17:47.312Z,20.54
2023-12-28T03:18:18.883Z,20.52
2023-12-28T03:18:50.582Z,20.53
2023-12-28T03:19:22.237Z,20.54
2023-12-28T03:19:53.867Z,20.53
2023-12-28T03:20:25.459Z,20.53
2023-12-28T03:20:56.921Z,20.55
2023-12-28T03:21:28.451Z,20.55
2023-12-28T03:22:00.038Z,20.53
2023-12-28T03:22:31.522Z,20.56
2023-12-28T03:23:02.976Z,20.54
2023-12-28T03:23:34.459Z,20.56
2023-12-28T03:24:05.963Z,20.54
2023-12-28T03:24:37.455Z,20.54
2023-12-28T03:25:08.924Z,20.53
2023-12-28T03:25:40.369Z,20.53
2023-12-28T03:26:11.804Z,20.55
2023-12-28T03:26:43.291Z,20.54
2023-12-28T03:27:14.887Z,20.55
2023-12-28T03:27:46.462Z,20.55
2023-12-28T03:28:17.971Z,20.57
2023-12-28T03:28:49.447Z,20.55
2023-12-28T03:29:20.897Z,20.55
2023-12-28T03:29:52.341Z,20.54
2023-12-28T03:30:23.893Z,20.54
2023-12-28T03:30:55.535Z,20.55
2023-12-28T03:31:27.164Z,20.54
2023-12-28T03:31:58.684Z,20.56
2023-12-28T03:32:30.217Z,20.54
2023-12-28T03:33:01.742Z,20.57
2023-12-28T03:33:33.426Z,20.58
2023-12-28T03:34:04.965Z,20.55
2023-12-28T03:34:36.577Z,20.56
2023-12-28T03:35:08.302Z,20.58
2023-12-28T03:35:39.818Z,20.58
2023-12-28T03:36:11.510Z,20.58
2023-12-28T03:36:43.000Z,20.58
2023-12-28T03:37:14.481Z,20.58
2023-12-28T03:37:45.943Z,20.59
2023-12-28T03:38:17.492Z,20.61
2023-12-28T03:38:48.916Z,20.60
2023-12-28T03:39:20.363Z,20.60
2023-12-28T03:39:51.909Z,20.59
2023-12-28T03:40:23.475Z,20.58
2023-12-28T03:40:54.971Z,20.56
2023-12-28T03:41:26.435Z,20.56
2023-12-28T03:41:57.899Z,20.55
2023-12-28T03:42:29.446Z,20.58
2023-12-28T03:43:01.039Z,20.58
2023-12-28T03:43:32.493Z,20.58
2023-12-28T03:44:03.933Z,20.59
2023-12-28T03:44:35.428Z,20.58
2023-12-28T03:45:06.881Z,20.56
2023-12-28T03:45:38.461Z,20.58
2023-12-28T03:46:09.981Z,20.59
2023-12-28T03:46:41.452Z,20.59
2023-12-28T03:47:12.927Z,20.60
2023-12-28T03:47:44.528Z,20.59
2023-12-28T03:48:16.283Z,20.56
2023-12-28T03:48:48.021Z,20.55
2023-12-28T03:49:19.809Z,20.57
2023-12-28T03:49:51.464Z,20.58
2023-12-28T03:50:23.092Z,20.59
2023-12-28T03:50:54.643Z,20.58
2023-12-28T03:51:26.202Z,20.56
2023-12-28T03:51:57.859Z,20.56
2023-12-28T03:52:29.578Z,20.56
2023-12-28T03:53:01.182Z,20.59
2023-12-28T03:53:32.680Z,20.58
2023-12-28T03:54:04.178Z,20.56
2023-12-28T03:54:35.745Z,20.59
2023-12-28T03:55:07.259Z,20.58
2023-12-28T03:55:38.837Z,20.55
2023-12-28T03:56:10.278Z,20.60
2023-12-28T03:56:41.716Z,20.57
2023-12-28T03:57:13.205Z,20.58
2023-12-28T03:57:44.705Z,20.59
2023-12-28T03:58:16.138Z,20.54
2023-12-28T03:58:47.647Z,20.55
2023-12-28T03:59:19.390Z,20.59
2023-12-28T03:59:51.045Z,20.58
2023-12-28T04:00:22.603Z,20.58
2023-12-28T04:00:54.266Z,20.61
2023-12-28T04:01:25.902Z,20.60
2023-12-28T04:01:57.460Z,20.60
2023-12-28T04:02:28.982Z,20.60
2023-12-28T04:03:00.505Z,20.58
2023-12-28T04:03:32.011Z,20.57
2023-12-28T04:04:03.618Z,20.59
2023-12-28T04:04:35.284Z,20.57
2023-12-28T04:05:06.840Z,20.58
2023-12-28T04:05:38.349Z,20.55
2023-12-28T04:06:09.833Z,20.56
2023-12-28T04:06:41.324Z,20.56
2023-12-28T04:07:12.889Z,20.60
2023-12-28T04:07:44.373Z,20.61
2023-12-28T04:08:15.839Z,20.59
2023-12-28T04:08:47.410Z,20.59
2023-12-28T04:09:19.061Z,20.60
2023-12-28T04:09:50.722Z,20.59
2023-12-28T04:10:22.241Z,20.59
2023-12-28T04:10:53.752Z,20.61
2023-12-28T04:11:25.257Z,20.62
2023-12-28T04:11:56.746Z,20.61
2023-12-28T04:12:28.255Z,20.59
2023-12-28T04:12:59.743Z,20.62
2023-12-28T04:13:31.254Z,20.58
2023-12-28T04:14:02.798Z,20.56
2023-12-28T04:14:34.273Z,20.59
2023-12-28T04:15:05.710Z,20.59
2023-12-28T04:15:37.207Z,20.61
2023-12-28T04:16:08.698Z,20.60
2023-12-28T04:16:40.208Z,20.61
2023-12-28T04:17:11.692Z,20.58
2023-12-28T04:17:43.173Z,20.59
2023-12-28T04:18:14.878Z,20.58
2023-12-28T04:18:46.560Z,20.57
2023-12-28T04:19:21.191Z,20.58
2023-12-28T04:19:53.142Z,20.55
2023-12-28T04:20:24.696Z,20.58
2023-12-28T04:20:56.169Z,20.59
2023-12-28T04:21:27.660Z,20.59
2023-12-28T04:21:59.173Z,20.56
2023-12-28T04:22:30.644Z,20.56
2023-12-28T04:23:02.198Z,20.61
2023-12-28T04:23:33.629Z,20.63
2023-12-28T04:24:05.140Z,20.64
2023-12-28T04:24:36.649Z,20.60
2023-12-28T04:25:08.188Z,20.62
2023-12-28T04:25:39.613Z,20.61
2023-12-28T04:26:11.116Z,20.62
2023-12-28T04:26:42.567Z,20.59
2023-12-28T04:27:14.236Z,20.61
2023-12-28T04:27:45.739Z,20.61
2023-12-28T04:28:17.206Z,20.61
2023-12-28T04:28:48.665Z,20.59
2023-12-28T04:29:20.153Z,20.59
2023-12-28T04:29:51.575Z,20.59
2023-12-28T04:30:23.047Z,20.59
2023-12-28T04:30:54.654Z,20.60
2023-12-28T04:31:26.366Z,20.58
2023-12-28T04:31:57.988Z,20.58
2023-12-28T04:32:29.468Z,20.58
2023-12-28T04:33:00.968Z,20.59
2023-12-28T04:33:32.620Z,20.57
2023-12-28T04:34:04.260Z,20.58
2023-12-28T04:34:35.831Z,20.59
2023-12-28T04:35:07.314Z,20.59
2023-12-28T04:35:38.772Z,20.56
2023-12-28T04:36:10.340Z,20.56
2023-12-28T04:36:41.898Z,20.56
2023-12-28T04:37:13.478Z,20.59
2023-12-28T04:37:44.946Z,20.56
2023-12-28T04:38:16.455Z,20.59
2023-12-28T04:38:47.900Z,20.60
2023-12-28T04:39:19.476Z,20.60
2023-12-28T04:39:51.014Z,20.59
2023-12-28T04:40:22.512Z,20.58
2023-12-28T04:40:54.005Z,20.58
2023-12-28T04:41:25.534Z,20.54
2023-12-28T04:41:57.061Z,20.60
2023-12-28T04:42:28.512Z,20.56
2023-12-28T04:43:00.037Z,20.59
2023-12-28T04:43:31.543Z,20.60
2023-12-28T04:44:03.092Z,20.62
2023-12-28T04:44:34.633Z,20.60
2023-12-28T04:45:06.114Z,20.59
2023-12-28T04:45:37.634Z,20.60
2023-12-28T04:46:09.217Z,20.59
2023-12-28T04:46:40.692Z,20.56
2023-12-28T04:47:12.130Z,20.59
2023-12-28T04:47:43.718Z,20.59
2023-12-28T04:48:15.402Z,20.60
2023-12-28T04:48:47.375Z,20.60
2023-12-28T04:49:19.126Z,20.56
2023-12-28T04:49:50.812Z,20.59
2023-12-28T04:50:22.374Z,20.62
2023-12-28T04:50:54.107Z,20.58
2023-12-28T04:51:25.748Z,20.60
2023-12-28T04:51:57.371Z,20.60
2023-12-28T04:52:28.814Z,20.58
2023-12-28T04:53:00.406Z,20.62
2023-12-28T04:53:31.991Z,20.64
2023-12-28T04:54:03.562Z,20.64
2023-12-28T04:54:35.093Z,20.63
2023-12-28T04:55:06.612Z,20.65
2023-12-28T04:55:38.169Z,20.62
2023-12-28T04:56:09.749Z,20.64
2023-12-28T04:56:41.258Z,20.63
2023-12-28T04:57:12.789Z,20.62
2023-12-28T04:57:44.381Z,20.63
2023-12-28T04:58:15.938Z,20.63
2023-12-28T04:58:47.495Z,20.66
2023-12-28T04:59:19.063Z,20.66
2023-12-28T04:59:50.566Z,20.62
2023-12-28T05:00:22.094Z,20.61
2023-12-28T05:00:53.637Z,20.63
2023-12-28T05:01:25.363Z,20.59
2023-12-28T05:01:56.947Z,20.61
2023-12-28T05:02:28.392Z,20.62
2023-12-28T05:02:59.834Z,20.63
2023-12-28T05:03:31.362Z,20.62
2023-12-28T05:04:02.977Z,20.64
2023-12-28T05:04:34.550Z,20.60
2023-12-28T05:05:06.115Z,20.61
2023-12-28T05:05:37.586Z,20.61
2023-12-28T05:06:09.223Z,20.62
2023-12-28T05:06:40.870Z,20.59
2023-12-28T05:07:12.370Z,20.63
2023-12-28T05:07:43.911Z,20.60
2023-12-28T05:08:15.422Z,20.59
2023-12-28T05:08:46.863Z,20.61
2023-12-28T05:09:18.507Z,20.61
2023-12-28T05:09:50.114Z,20.62
2023-12-28T05:10:21.583Z,20.62
2023-12-28T05:10:53.029Z,20.60
2023-12-28T05:11:24.574Z,20.64
2023-12-28T05:11:56.062Z,20.64
2023-12-28T05:12:28.561Z,20.64
2023-12-28T05:13:02.064Z,20.64
2023-12-28T05:13:34.084Z,20.63
2023-12-28T05:14:05.599Z,20.63
2023-12-28T05:14:37.193Z,20.65
2023-12-28T05:15:08.647Z,20.65
2023-12-28T05:15:40.225Z,20.65
2023-12-28T05:16:11.681Z,20.64
2023-12-28T05:16:43.143Z,20.64
2023-12-28T05:17:14.715Z,20.59
2023-12-28T05:17:46.314Z,20.61
2023-12-28T05:18:18.074Z,20.59
2023-12-28T05:18:49.623Z,20.58
2023-12-28T05:19:21.328Z,20.60
2023-12-28T05:19:52.899Z,20.63
2023-12-28T05:20:24.341Z,20.60
2023-12-28T05:20:55.780Z,20.59
2023-12-28T05:21:27.349Z,20.61
2023-12-28T05:21:58.841Z,20.60
2023-12-28T05:22:30.287Z,20.58
2023-12-28T05:23:01.837Z,20.60
2023-12-28T05:23:33.309Z,20.60
2023-12-28T05:24:04.819Z,20.59
2023-12-28T05:24:36.325Z,20.61
2023-12-28T05:25:07.872Z,20.61
2023-12-28T05:25:39.317Z,20.59
2023-12-28T05:26:10.789Z,20.60
2023-12-28T05:26:42.239Z,20.61
2023-12-28T05:27:13.744Z,20.62
2023-12-28T05:27:45.417Z,20.62
2023-12-28T05:28:16.968Z,20.63
2023-12-28T05:28:48.461Z,20.61
2023-12-28T05:29:20.172Z,20.64
2023-12-28T05:29:51.655Z,20.65
2023-12-28T05:30:23.269Z,20.64
2023-12-28T05:30:54.935Z,20.62
2023-12-28T05:31:26.603Z,20.62
2023-12-28T05:31:58.159Z,20.64
2023-12-28T05:32:29.792Z,20.63
2023-12-28T05:33:01.471Z,20.61
2023-12-28T05:33:33.102Z,20.64
2023-12-28T05:34:04.634Z,20.63
2023-12-28T05:34:36.188Z,20.62
2023-12-28T05:35:07.673Z,20.61
2023-12-28T05:35:39.162Z,20.61
2023-12-28T05:36:12.359Z,20.60
2023-12-28T05:36:43.888Z,20.61
2023-12-28T05:37:15.432Z,20.60
2023-12-28T05:37:46.917Z,20.59
2023-12-28T05:38:18.398Z,20.58
2023-12-28T05:38:49.935Z,20.59
2023-12-28T05:39:21.429Z,20.58
2023-12-28T05:39:53.005Z,20.60
2023-12-28T05:40:24.575Z,20.58
2023-12-28T05:40:56.065Z,20.60
2023-12-28T05:41:27.545Z,20.61
2023-12-28T05:41:59.053Z,20.58
2023-12-28T05:42:30.587Z,20.58
2023-12-28T05:43:02.078Z,20.58
2023-12-28T05:43:33.583Z,20.59
2023-12-28T05:44:05.040Z,20.58
2023-12-28T05:44:36.474Z,20.57
2023-12-28T05:45:07.916Z,20.59
2023-12-28T05:45:39.386Z,20.58
2023-12-28T05:46:11.025Z,20.59
2023-12-28T05:46:42.601Z,20.58
2023-12-28T05:47:14.131Z,20.59
2023-12-28T05:47:45.707Z,20.58
2023-12-28T05:48:17.351Z,20.60
2023-12-28T05:48:48.960Z,20.56
2023-12-28T05:49:22.957Z,20.59
2023-12-28T05:49:54.562Z,20.60
2023-12-28T05:50:26.147Z,20.61
2023-12-28T05:50:57.591Z,20.60
2023-12-28T05:51:29.150Z,20.62
2023-12-28T05:52:00.631Z,20.61
2023-12-28T05:52:32.171Z,20.62
2023-12-28T05:53:03.652Z,20.63
2023-12-28T05:53:35.176Z,20.58
2023-12-28T05:54:09.407Z,20.63
2023-12-28T05:54:41.185Z,20.65
2023-12-28T05:55:13.132Z,20.65
2023-12-28T05:55:44.717Z,20.64
2023-12-28T05:56:16.238Z,20.65
2023-12-28T05:56:47.694Z,20.63
2023-12-28T05:57:19.186Z,20.61
2023-12-28T05:57:50.735Z,20.62
2023-12-28T05:58:22.434Z,20.60
2023-12-28T05:58:53.962Z,20.59
2023-12-28T05:59:25.450Z,20.59
2023-12-28T05:59:56.903Z,20.58
2023-12-28T06:00:28.552Z,20.59
2023-12-28T06:01:00.353Z,20.60
2023-12-28T06:01:32.114Z,20.60
2023-12-28T06:02:03.624Z,20.60
2023-12-28T06:02:35.117Z,20.58
2023-12-28T06:03:06.544Z,20.59
2023-12-28T06:03:38.127Z,20.60
2023-12-28T06:04:09.748Z,20.61
2023-12-28T06:04:41.396Z,20.58
2023-12-28T06:05:13.228Z,20.58
2023-12-28T06:05:44.786Z,20.57
2023-12-28T06:06:16.289Z,20.56
2023-12-28T06:06:47.754Z,20.56
2023-12-28T06:07:19.280Z,20.56
2023-12-28T06:07:50.790Z,20.59
2023-12-28T06:08:24.218Z,20.62
2023-12-28T06:08:56.887Z,20.60
2023-12-28T06:09:28.421Z,20.61
2023-12-28T06:09:59.939Z,20.60
2023-12-28T06:10:31.491Z,20.61
2023-12-28T06:11:02.980Z,20.60
2023-12-28T06:11:34.421Z,20.57
2023-12-28T06:12:05.894Z,20.59
2023-12-28T06:12:37.465Z,20.59
2023-12-28T06:13:08.922Z,20.59
2023-12-28T06:13:40.386Z,20.60
2023-12-28T06:14:11.843Z,20.58
2023-12-28T06:14:43.344Z,20.56
2023-12-28T06:15:15.020Z,20.56
2023-12-28T06:15:46.657Z,20.59
2023-12-28T06:16:18.151Z,20.56
2023-12-28T06:16:49.734Z,20.58
2023-12-28T06:17:21.241Z,20.58
2023-12-28T06:17:52.867Z,20.55
2023-12-28T06:18:24.679Z,20.57
2023-12-28T06:18:56.427Z,20.58
2023-12-28T06:19:28.084Z,20.59
2023-12-28T06:19:59.743Z,20.60
2023-12-28T06:20:31.304Z,20.57
2023-12-28T06:21:02.795Z,20.58
2023-12-28T06:21:34.281Z,20.57
2023-12-28T06:22:05.746Z,20.58
2023-12-28T06:22:37.236Z,20.60
2023-12-28T06:23:08.686Z,20.58
2023-12-28T06:23:40.143Z,20.60
2023-12-28T06:24:11.582Z,20.58
2023-12-28T06:24:43.140Z,20.56
2023-12-28T06:25:14.733Z,20.54
2023-12-28T06:25:46.198Z,20.58
2023-12-28T06:26:19.123Z,20.56
2023-12-28T06:26:51.844Z,20.60
2023-12-28T06:27:23.425Z,20.62
2023-12-28T06:27:54.966Z,20.63
2023-12-28T06:28:26.505Z,20.63
2023-12-28T06:28:57.959Z,20.62
2023-12-28T06:29:29.387Z,20.61
2023-12-28T06:30:00.868Z,20.63
2023-12-28T06:30:32.521Z,20.64
2023-12-28T06:31:04.185Z,20.63
2023-12-28T06:31:35.788Z,20.64
2023-12-28T06:32:07.279Z,20.62
2023-12-28T06:32:38.787Z,20.62
2023-12-28T06:33:10.499Z,20.62
2023-12-28T06:33:42.215Z,20.63
2023-12-28T06:34:13.849Z,20.61
2023-12-28T06:34:45.375Z,20.63
2023-12-28T06:35:16.856Z,20.60
2023-12-28T06:35:48.295Z,20.59
2023-12-28T06:36:19.888Z,20.60
2023-12-28T06:36:51.415Z,20.59
2023-12-28T06:37:22.911Z,20.61
2023-12-28T06:37:54.364Z,20.61
2023-12-28T06:38:25.954Z,20.63
2023-12-28T06:38:57.409Z,20.61
2023-12-28T06:39:28.899Z,20.61
2023-12-28T06:40:00.485Z,20.60
2023-12-28T06:40:31.992Z,20.58
2023-12-28T06:41:03.498Z,20.57
2023-12-28T06:41:34.944Z,20.60
2023-12-28T06:42:06.444Z,20.58
2023-12-28T06:42:38.145Z,20.58
2023-12-28T06:43:09.682Z,20.60
2023-12-28T06:43:41.244Z,20.59
2023-12-28T06:44:12.753Z,20.61
2023-12-28T06:44:44.186Z,20.60
2023-12-28T06:45:15.654Z,20.60
2023-12-28T06:45:47.211Z,20.59
2023-12-28T06:46:18.693Z,20.59
2023-12-28T06:46:50.148Z,20.56